sensor_id;sensor_type;location;lat;lon;timestamp;pressure;altitude;pressure_sealevel;temperature;humidity
42671;BME280;28283;55.426;37.756;2023-05-09T00:02:16;100956.16;;;4.75;51.12
42671;BME280;28283;55.426;37.756;2023-05-09T00:07:16;100952.63;;;4.86;50.81
42671;BME280;28283;55.426;37.756;2023-05-09T00:12:17;100953.75;;;4.84;51.11
42671;BME280;28283;55.426;37.756;2023-05-09T00:17:17;100952.09;;;4.60;51.78
42671;BME280;28283;55.426;37.756;2023-05-09T00:22:18;100953.69;;;4.17;52.46
42671;BME280;28283;55.426;37.756;2023-05-09T00:27:22;100956.06;;;3.87;52.88
42671;BME280;28283;55.426;37.756;2023-05-09T00:32:23;100955.84;;;3.90;52.37
42671;BME280;28283;55.426;37.756;2023-05-09T00:37:24;100950.88;;;3.96;52.22
42671;BME280;28283;55.426;37.756;2023-05-09T00:42:25;100952.81;;;3.94;52.50
42671;BME280;28283;55.426;37.756;2023-05-09T00:47:26;100955.50;;;4.06;52.32
42671;BME280;28283;55.426;37.756;2023-05-09T00:52:26;100959.22;;;4.03;52.61
42671;BME280;28283;55.426;37.756;2023-05-09T00:57:27;100958.59;;;3.88;52.59
42671;BME280;28283;55.426;37.756;2023-05-09T01:02:27;100961.59;;;3.83;52.39
42671;BME280;28283;55.426;37.756;2023-05-09T01:12:58;100960.44;;;3.99;51.86
42671;BME280;28283;55.426;37.756;2023-05-09T01:33:11;100954.50;;;4.07;53.99
42671;BME280;28283;55.426;37.756;2023-05-09T01:38:13;100955.13;;;3.99;54.54
42671;BME280;28283;55.426;37.756;2023-05-09T01:43:15;100958.22;;;3.81;55.10
42671;BME280;28283;55.426;37.756;2023-05-09T01:48:16;100964.69;;;3.55;55.83
42671;BME280;28283;55.426;37.756;2023-05-09T01:53:17;100960.78;;;3.48;56.20
42671;BME280;28283;55.426;37.756;2023-05-09T01:58:18;100957.38;;;3.34;56.51
42671;BME280;28283;55.426;37.756;2023-05-09T02:03:19;100963.03;;;3.41;56.73
42671;BME280;28283;55.426;37.756;2023-05-09T02:08:21;100963.44;;;3.48;56.61
42671;BME280;28283;55.426;37.756;2023-05-09T02:13:22;100963.34;;;3.49;56.80
42671;BME280;28283;55.426;37.756;2023-05-09T02:18:22;100964.59;;;3.32;57.48
42671;BME280;28283;55.426;37.756;2023-05-09T02:23:23;100968.34;;;3.05;58.06
42671;BME280;28283;55.426;37.756;2023-05-09T02:28:24;100969.13;;;2.95;57.68
42671;BME280;28283;55.426;37.756;2023-05-09T02:33:26;100979.41;;;2.99;57.40
42671;BME280;28283;55.426;37.756;2023-05-09T02:38:27;100968.84;;;3.11;57.83
42671;BME280;28283;55.426;37.756;2023-05-09T02:43:27;100972.47;;;3.10;57.54
42671;BME280;28283;55.426;37.756;2023-05-09T02:48:28;100968.44;;;3.28;58.31
42671;BME280;28283;55.426;37.756;2023-05-09T02:53:28;100975.91;;;3.23;59.24
42671;BME280;28283;55.426;37.756;2023-05-09T02:58:29;100972.00;;;3.16;59.44
42671;BME280;28283;55.426;37.756;2023-05-09T03:03:29;100978.00;;;3.06;59.61
42671;BME280;28283;55.426;37.756;2023-05-09T03:08:32;100975.84;;;3.12;60.13
42671;BME280;28283;55.426;37.756;2023-05-09T03:13:33;100975.41;;;3.18;60.05
42671;BME280;28283;55.426;37.756;2023-05-09T03:18:33;100984.63;;;3.25;60.04
42671;BME280;28283;55.426;37.756;2023-05-09T03:23:34;100986.13;;;3.40;59.98
42671;BME280;28283;55.426;37.756;2023-05-09T03:28:34;100986.09;;;3.29;59.51
42671;BME280;28283;55.426;37.756;2023-05-09T03:33:35;100991.16;;;3.56;59.82
42671;BME280;28283;55.426;37.756;2023-05-09T03:38:35;100993.41;;;3.74;59.98
42671;BME280;28283;55.426;37.756;2023-05-09T03:43:36;100997.28;;;3.81;60.28
42671;BME280;28283;55.426;37.756;2023-05-09T03:48:36;100998.63;;;3.98;59.70
42671;BME280;28283;55.426;37.756;2023-05-09T03:53:36;100996.88;;;4.21;59.08
42671;BME280;28283;55.426;37.756;2023-05-09T03:58:37;100994.94;;;4.46;58.69
42671;BME280;28283;55.426;37.756;2023-05-09T04:03:37;100993.63;;;4.74;58.58
42671;BME280;28283;55.426;37.756;2023-05-09T04:08:38;100998.75;;;5.09;58.40
42671;BME280;28283;55.426;37.756;2023-05-09T04:13:38;101014.03;;;5.51;58.66
42671;BME280;28283;55.426;37.756;2023-05-09T04:18:39;101009.56;;;5.93;58.12
42671;BME280;28283;55.426;37.756;2023-05-09T08:06:21;100927.16;;;13.18;30.46
42671;BME280;28283;55.426;37.756;2023-05-09T08:11:21;100916.78;;;13.07;32.33
42671;BME280;28283;55.426;37.756;2023-05-09T08:16:22;100908.56;;;13.00;31.28
42671;BME280;28283;55.426;37.756;2023-05-09T08:21:22;100908.22;;;13.03;32.03
42671;BME280;28283;55.426;37.756;2023-05-09T08:26:23;100906.06;;;13.22;32.50
42671;BME280;28283;55.426;37.756;2023-05-09T08:31:28;100908.22;;;13.26;30.05
42671;BME280;28283;55.426;37.756;2023-05-09T08:36:28;100898.97;;;13.44;29.89
42671;BME280;28283;55.426;37.756;2023-05-09T08:41:29;100898.09;;;13.51;33.00
42671;BME280;28283;55.426;37.756;2023-05-09T08:46:36;100888.28;;;13.50;29.89
42671;BME280;28283;55.426;37.756;2023-05-09T08:51:37;100891.16;;;13.49;31.04
42671;BME280;28283;55.426;37.756;2023-05-09T08:56:39;100880.06;;;14.11;28.67
42671;BME280;28283;55.426;37.756;2023-05-09T09:01:40;100882.84;;;13.73;27.95
42671;BME280;28283;55.426;37.756;2023-05-09T09:06:40;100871.94;;;13.21;28.62
42671;BME280;28283;55.426;37.756;2023-05-09T09:11:40;100873.28;;;13.02;29.29
42671;BME280;28283;55.426;37.756;2023-05-09T09:16:42;100859.13;;;13.23;29.05
42671;BME280;28283;55.426;37.756;2023-05-09T09:21:44;100866.00;;;13.33;29.25
42671;BME280;28283;55.426;37.756;2023-05-09T09:26:46;100857.28;;;13.61;30.49
42671;BME280;28283;55.426;37.756;2023-05-09T09:31:51;100857.81;;;13.94;29.93
42671;BME280;28283;55.426;37.756;2023-05-09T09:36:52;100849.00;;;14.22;28.97
42671;BME280;28283;55.426;37.756;2023-05-09T09:41:53;100846.75;;;14.41;29.76
42671;BME280;28283;55.426;37.756;2023-05-09T09:46:54;100844.31;;;14.46;29.99
42671;BME280;28283;55.426;37.756;2023-05-09T09:51:55;100840.28;;;14.57;30.48
42671;BME280;28283;55.426;37.756;2023-05-09T09:56:56;100832.09;;;15.08;26.89
42671;BME280;28283;55.426;37.756;2023-05-09T10:02:01;100828.13;;;15.60;29.29
42671;BME280;28283;55.426;37.756;2023-05-09T10:07:04;100829.16;;;15.59;28.34
42671;BME280;28283;55.426;37.756;2023-05-09T10:12:06;100821.50;;;15.35;27.46
42671;BME280;28283;55.426;37.756;2023-05-09T10:17:06;100821.19;;;15.01;28.36
42671;BME280;28283;55.426;37.756;2023-05-09T10:22:08;100823.97;;;14.86;29.80
42671;BME280;28283;55.426;37.756;2023-05-09T10:27:09;100827.31;;;15.10;28.51
42671;BME280;28283;55.426;37.756;2023-05-09T10:32:12;100833.06;;;15.50;28.67
42671;BME280;28283;55.426;37.756;2023-05-09T10:37:15;100821.25;;;16.34;26.69
42671;BME280;28283;55.426;37.756;2023-05-09T10:42:16;100805.97;;;17.08;28.46
42671;BME280;28283;55.426;37.756;2023-05-09T10:47:17;100803.25;;;17.62;27.72
42671;BME280;28283;55.426;37.756;2023-05-09T10:52:19;100794.63;;;17.98;28.54
42671;BME280;28283;55.426;37.756;2023-05-09T10:57:20;100779.41;;;18.29;27.82
42671;BME280;28283;55.426;37.756;2023-05-09T11:02:21;100776.38;;;18.50;28.05
42671;BME280;28283;55.426;37.756;2023-05-09T11:07:28;100775.88;;;17.30;26.91
42671;BME280;28283;55.426;37.756;2023-05-09T11:12:31;100775.63;;;16.71;25.62
42671;BME280;28283;55.426;37.756;2023-05-09T11:17:37;100762.75;;;16.12;24.96
42671;BME280;28283;55.426;37.756;2023-05-09T11:22:39;100766.66;;;15.68;26.66
42671;BME280;28283;55.426;37.756;2023-05-09T11:27:46;100756.22;;;15.30;25.68
42671;BME280;28283;55.426;37.756;2023-05-09T11:32:51;100753.91;;;14.77;26.47
42671;BME280;28283;55.426;37.756;2023-05-09T11:38:04;100740.50;;;14.68;26.78
42671;BME280;28283;55.426;37.756;2023-05-09T11:43:05;100716.31;;;15.80;27.41
42671;BME280;28283;55.426;37.756;2023-05-09T11:48:09;100726.53;;;17.46;25.60
42671;BME280;28283;55.426;37.756;2023-05-09T11:53:10;100716.22;;;18.20;25.29
42671;BME280;28283;55.426;37.756;2023-05-09T11:58:11;100719.44;;;18.42;25.52
42671;BME280;28283;55.426;37.756;2023-05-09T12:03:12;100714.66;;;17.99;25.14
42671;BME280;28283;55.426;37.756;2023-05-09T12:08:13;100718.63;;;17.11;23.14
42671;BME280;28283;55.426;37.756;2023-05-09T12:13:14;100711.09;;;16.60;24.58
42671;BME280;28283;55.426;37.756;2023-05-09T12:18:15;100710.00;;;16.28;25.61
42671;BME280;28283;55.426;37.756;2023-05-09T12:23:17;100710.59;;;16.10;23.74
42671;BME280;28283;55.426;37.756;2023-05-09T12:28:18;100692.03;;;15.65;25.41
42671;BME280;28283;55.426;37.756;2023-05-09T12:33:19;100697.81;;;15.55;26.60
42671;BME280;28283;55.426;37.756;2023-05-09T12:38:20;100687.50;;;15.37;24.83
42671;BME280;28283;55.426;37.756;2023-05-09T12:43:21;100675.56;;;15.73;25.51
42671;BME280;28283;55.426;37.756;2023-05-09T12:48:22;100674.75;;;16.61;23.87
42671;BME280;28283;55.426;37.756;2023-05-09T12:53:24;100655.66;;;17.41;23.14
42671;BME280;28283;55.426;37.756;2023-05-09T12:58:27;100653.88;;;17.73;20.84
42671;BME280;28283;55.426;37.756;2023-05-09T13:03:31;100641.28;;;17.21;21.44
42671;BME280;28283;55.426;37.756;2023-05-09T13:08:36;100641.78;;;16.84;22.18
42671;BME280;28283;55.426;37.756;2023-05-09T13:13:37;100639.88;;;16.45;23.59
42671;BME280;28283;55.426;37.756;2023-05-09T13:18:38;100626.31;;;16.51;22.68
42671;BME280;28283;55.426;37.756;2023-05-09T13:23:39;100634.25;;;16.46;23.29
42671;BME280;28283;55.426;37.756;2023-05-09T13:28:41;100619.22;;;16.50;23.98
42671;BME280;28283;55.426;37.756;2023-05-09T13:33:41;100623.38;;;16.33;24.58
42671;BME280;28283;55.426;37.756;2023-05-09T13:38:42;100619.84;;;16.19;24.81
42671;BME280;28283;55.426;37.756;2023-05-09T13:43:44;100619.19;;;16.23;25.36
42671;BME280;28283;55.426;37.756;2023-05-09T13:48:44;100611.66;;;15.99;23.77
42671;BME280;28283;55.426;37.756;2023-05-09T13:53:46;100608.69;;;15.80;25.47
42671;BME280;28283;55.426;37.756;2023-05-09T13:58:47;100613.09;;;15.88;25.36
42671;BME280;28283;55.426;37.756;2023-05-09T14:03:48;100601.59;;;15.86;25.81
42671;BME280;28283;55.426;37.756;2023-05-09T14:08:49;100596.97;;;15.73;25.58
42671;BME280;28283;55.426;37.756;2023-05-09T14:13:49;100598.72;;;15.39;25.14
42671;BME280;28283;55.426;37.756;2023-05-09T14:18:51;100584.69;;;15.22;25.56
42671;BME280;28283;55.426;37.756;2023-05-09T14:23:52;100583.44;;;15.18;26.14
42671;BME280;28283;55.426;37.756;2023-05-09T14:28:52;100580.72;;;15.18;26.54
42671;BME280;28283;55.426;37.756;2023-05-09T14:33:53;100578.22;;;15.23;26.12
42671;BME280;28283;55.426;37.756;2023-05-09T14:38:53;100578.91;;;15.39;25.35
42671;BME280;28283;55.426;37.756;2023-05-09T14:43:54;100571.41;;;15.41;26.25
42671;BME280;28283;55.426;37.756;2023-05-09T14:48:54;100577.22;;;15.31;25.31
42671;BME280;28283;55.426;37.756;2023-05-09T14:53:56;100568.41;;;15.16;26.87
42671;BME280;28283;55.426;37.756;2023-05-09T14:58:57;100567.09;;;15.05;26.64
42671;BME280;28283;55.426;37.756;2023-05-09T15:03:57;100571.84;;;14.96;26.55
42671;BME280;28283;55.426;37.756;2023-05-09T15:08:57;100567.03;;;14.92;28.14
42671;BME280;28283;55.426;37.756;2023-05-09T15:13:58;100561.19;;;14.88;27.33
42671;BME280;28283;55.426;37.756;2023-05-09T15:18:58;100558.88;;;14.85;27.09
42671;BME280;28283;55.426;37.756;2023-05-09T15:23:59;100556.97;;;14.79;28.24
42671;BME280;28283;55.426;37.756;2023-05-09T15:28:59;100551.06;;;14.68;27.55
42671;BME280;28283;55.426;37.756;2023-05-09T15:34:00;100546.94;;;14.73;27.87
42671;BME280;28283;55.426;37.756;2023-05-09T15:39:00;100541.13;;;14.76;27.14
42671;BME280;28283;55.426;37.756;2023-05-09T15:44:01;100529.50;;;14.82;27.76
42671;BME280;28283;55.426;37.756;2023-05-09T15:49:01;100539.06;;;14.78;28.00
42671;BME280;28283;55.426;37.756;2023-05-09T15:54:02;100529.66;;;14.74;28.03
42671;BME280;28283;55.426;37.756;2023-05-09T15:59:03;100530.69;;;14.73;28.52
42671;BME280;28283;55.426;37.756;2023-05-09T16:04:03;100527.63;;;14.82;28.24
42671;BME280;28283;55.426;37.756;2023-05-09T16:09:05;100536.25;;;15.54;28.73
42671;BME280;28283;55.426;37.756;2023-05-09T16:14:06;100522.38;;;16.37;27.89
42671;BME280;28283;55.426;37.756;2023-05-09T16:19:10;100522.38;;;16.11;27.92
42671;BME280;28283;55.426;37.756;2023-05-09T16:24:11;100517.66;;;15.44;27.06
42671;BME280;28283;55.426;37.756;2023-05-09T16:29:11;100515.84;;;14.97;27.88
42671;BME280;28283;55.426;37.756;2023-05-09T16:34:12;100509.81;;;14.60;28.33
42671;BME280;28283;55.426;37.756;2023-05-09T16:39:13;100502.75;;;14.37;29.11
42671;BME280;28283;55.426;37.756;2023-05-09T16:44:14;100509.56;;;14.96;28.86
42671;BME280;28283;55.426;37.756;2023-05-09T16:49:14;100501.47;;;15.71;28.85
42671;BME280;28283;55.426;37.756;2023-05-09T16:54:15;100505.47;;;15.89;28.57
42671;BME280;28283;55.426;37.756;2023-05-09T16:59:15;100511.88;;;15.68;28.92
42671;BME280;28283;55.426;37.756;2023-05-09T17:04:16;100505.09;;;15.23;28.58
42671;BME280;28283;55.426;37.756;2023-05-09T17:09:17;100506.06;;;14.61;28.29
42671;BME280;28283;55.426;37.756;2023-05-09T17:14:17;100507.59;;;13.92;29.19
42671;BME280;28283;55.426;37.756;2023-05-09T17:19:18;100517.03;;;13.38;29.71
42671;BME280;28283;55.426;37.756;2023-05-09T17:24:22;100514.59;;;13.07;29.10
42671;BME280;28283;55.426;37.756;2023-05-09T17:29:22;100518.31;;;12.91;30.10
42671;BME280;28283;55.426;37.756;2023-05-09T17:34:23;100519.53;;;12.73;30.33
42671;BME280;28283;55.426;37.756;2023-05-09T17:39:24;100519.81;;;12.64;30.36
42671;BME280;28283;55.426;37.756;2023-05-09T17:44:24;100524.66;;;12.53;30.38
42671;BME280;28283;55.426;37.756;2023-05-09T17:49:25;100522.22;;;12.44;30.17
42671;BME280;28283;55.426;37.756;2023-05-09T17:54:25;100514.56;;;12.32;30.09
42671;BME280;28283;55.426;37.756;2023-05-09T17:59:26;100514.56;;;12.17;30.34
42671;BME280;28283;55.426;37.756;2023-05-09T18:04:27;100520.88;;;12.10;30.32
42671;BME280;28283;55.426;37.756;2023-05-09T18:09:29;100516.38;;;12.02;30.48
42671;BME280;28283;55.426;37.756;2023-05-09T18:14:30;100513.28;;;11.90;30.22
42671;BME280;28283;55.426;37.756;2023-05-09T18:19:30;100508.56;;;11.84;30.77
42671;BME280;28283;55.426;37.756;2023-05-09T18:24:32;100510.00;;;11.72;30.49
42671;BME280;28283;55.426;37.756;2023-05-09T18:29:33;100516.13;;;11.65;30.50
42671;BME280;28283;55.426;37.756;2023-05-09T18:34:34;100509.44;;;11.61;30.50
42671;BME280;28283;55.426;37.756;2023-05-09T18:39:35;100517.81;;;11.43;30.88
42671;BME280;28283;55.426;37.756;2023-05-09T18:44:35;100522.47;;;11.18;30.97
42671;BME280;28283;55.426;37.756;2023-05-09T18:49:36;100520.72;;;10.94;31.97
42671;BME280;28283;55.426;37.756;2023-05-09T18:54:37;100516.06;;;10.88;31.40
42671;BME280;28283;55.426;37.756;2023-05-09T18:59:40;100516.75;;;10.82;31.70
42671;BME280;28283;55.426;37.756;2023-05-09T19:04:40;100517.94;;;10.71;32.10
42671;BME280;28283;55.426;37.756;2023-05-09T19:09:41;100514.28;;;10.64;32.29
42671;BME280;28283;55.426;37.756;2023-05-09T19:14:41;100521.84;;;10.60;32.47
42671;BME280;28283;55.426;37.756;2023-05-09T19:19:42;100521.34;;;10.57;32.60
42671;BME280;28283;55.426;37.756;2023-05-09T19:24:43;100509.09;;;10.54;32.16
42671;BME280;28283;55.426;37.756;2023-05-09T19:29:44;100522.88;;;10.51;32.28
42671;BME280;28283;55.426;37.756;2023-05-09T19:34:45;100511.81;;;10.46;32.54
42671;BME280;28283;55.426;37.756;2023-05-09T19:39:46;100510.81;;;10.39;32.34
42671;BME280;28283;55.426;37.756;2023-05-09T19:44:47;100501.59;;;10.33;32.62
42671;BME280;28283;55.426;37.756;2023-05-09T19:49:47;100503.75;;;10.29;32.54
42671;BME280;28283;55.426;37.756;2023-05-09T19:54:48;100499.25;;;10.22;32.77
42671;BME280;28283;55.426;37.756;2023-05-09T19:59:49;100501.25;;;10.11;33.17
42671;BME280;28283;55.426;37.756;2023-05-09T20:04:51;100509.97;;;10.30;33.46
42671;BME280;28283;55.426;37.756;2023-05-09T20:09:53;100516.22;;;9.89;34.91
42671;BME280;28283;55.426;37.756;2023-05-09T20:14:54;100516.28;;;9.22;35.02
42671;BME280;28283;55.426;37.756;2023-05-09T20:19:54;100512.13;;;9.28;35.04
42671;BME280;28283;55.426;37.756;2023-05-09T20:24:55;100505.09;;;9.43;34.93
42671;BME280;28283;55.426;37.756;2023-05-09T20:29:56;100496.91;;;9.53;34.57
42671;BME280;28283;55.426;37.756;2023-05-09T20:34:56;100492.22;;;9.55;34.60
42671;BME280;28283;55.426;37.756;2023-05-09T20:39:57;100492.69;;;9.50;34.89
42671;BME280;28283;55.426;37.756;2023-05-09T20:44:58;100502.75;;;9.48;35.15
42671;BME280;28283;55.426;37.756;2023-05-09T20:49:58;100496.06;;;9.44;34.85
42671;BME280;28283;55.426;37.756;2023-05-09T20:54:58;100490.53;;;9.46;34.74
42671;BME280;28283;55.426;37.756;2023-05-09T20:59:59;100490.34;;;9.55;35.05
42671;BME280;28283;55.426;37.756;2023-05-09T21:04:59;100484.00;;;9.57;34.63
42671;BME280;28283;55.426;37.756;2023-05-09T21:10:00;100494.38;;;9.60;34.43
42671;BME280;28283;55.426;37.756;2023-05-09T21:15:01;100484.31;;;9.62;34.86
42671;BME280;28283;55.426;37.756;2023-05-09T21:20:02;100490.38;;;9.64;34.60
42671;BME280;28283;55.426;37.756;2023-05-09T21:25:02;100500.91;;;9.65;34.76
42671;BME280;28283;55.426;37.756;2023-05-09T21:30:03;100500.41;;;9.62;34.72
42671;BME280;28283;55.426;37.756;2023-05-09T21:35:04;100493.56;;;9.59;34.95
42671;BME280;28283;55.426;37.756;2023-05-09T21:40:09;100486.69;;;9.57;35.06
42671;BME280;28283;55.426;37.756;2023-05-09T21:45:10;100490.84;;;9.51;34.98
42671;BME280;28283;55.426;37.756;2023-05-09T21:50:10;100488.00;;;9.44;34.92
42671;BME280;28283;55.426;37.756;2023-05-09T21:55:11;100488.03;;;9.61;35.67
42671;BME280;28283;55.426;37.756;2023-05-09T22:00:14;100478.72;;;9.22;36.51
42671;BME280;28283;55.426;37.756;2023-05-09T22:05:18;100481.31;;;8.81;36.49
42671;BME280;28283;55.426;37.756;2023-05-09T22:10:18;100480.97;;;8.84;36.57
42671;BME280;28283;55.426;37.756;2023-05-09T22:15:19;100479.00;;;8.94;36.09
42671;BME280;28283;55.426;37.756;2023-05-09T22:20:20;100470.47;;;9.07;35.67
42671;BME280;28283;55.426;37.756;2023-05-09T22:25:20;100461.47;;;9.25;35.76
42671;BME280;28283;55.426;37.756;2023-05-09T22:30:21;100460.16;;;9.45;34.77
42671;BME280;28283;55.426;37.756;2023-05-09T22:35:22;100458.13;;;9.23;35.23
42671;BME280;28283;55.426;37.756;2023-05-09T22:40:22;100462.81;;;9.21;35.59
42671;BME280;28283;55.426;37.756;2023-05-09T22:45:23;100461.31;;;9.51;34.94
42671;BME280;28283;55.426;37.756;2023-05-09T22:50:24;100452.47;;;9.59;34.71
42671;BME280;28283;55.426;37.756;2023-05-09T22:55:24;100456.25;;;9.15;35.36
42671;BME280;28283;55.426;37.756;2023-05-09T23:00:25;100447.00;;;9.09;35.42
42671;BME280;28283;55.426;37.756;2023-05-09T23:05:25;100446.53;;;9.14;35.35
42671;BME280;28283;55.426;37.756;2023-05-09T23:10:25;100446.03;;;9.18;35.19
42671;BME280;28283;55.426;37.756;2023-05-09T23:15:26;100455.28;;;9.41;35.39
42671;BME280;28283;55.426;37.756;2023-05-09T23:20:26;100440.03;;;9.41;35.53
42671;BME280;28283;55.426;37.756;2023-05-09T23:25:27;100434.47;;;9.10;35.97
42671;BME280;28283;55.426;37.756;2023-05-09T23:30:27;100436.63;;;9.06;36.16
42671;BME280;28283;55.426;37.756;2023-05-09T23:35:28;100447.28;;;8.90;36.38
42671;BME280;28283;55.426;37.756;2023-05-09T23:40:28;100443.19;;;8.61;36.92
42671;BME280;28283;55.426;37.756;2023-05-09T23:45:29;100449.41;;;8.62;37.58
42671;BME280;28283;55.426;37.756;2023-05-09T23:50:29;100449.63;;;8.42;37.78
42671;BME280;28283;55.426;37.756;2023-05-09T23:55:30;100456.09;;;8.39;38.04
